sensor_id;sensor_type;location;lat;lon;timestamp;P1;durP1;ratioP1;P2;durP2;ratioP2
59169;SDS011;52474;52.236;5.114;2022-09-28T00:01:17;5.68;;;2.80;;
59169;SDS011;52474;52.236;5.114;2022-09-28T00:03:44;7.32;;;3.33;;
59169;SDS011;52474;52.236;5.114;2022-09-28T00:06:11;5.55;;;2.83;;
59169;SDS011;52474;52.236;5.114;2022-09-28T00:08:38;7.20;;;3.20;;
59169;SDS011;52474;52.236;5.114;2022-09-28T00:11:05;6.63;;;2.47;;
59169;SDS011;52474;52.236;5.114;2022-09-28T00:13:32;8.20;;;3.28;;
59169;SDS011;52474;52.236;5.114;2022-09-28T00:18:32;4.95;;;2.75;;
59169;SDS011;52474;52.236;5.114;2022-09-28T00:21:02;5.13;;;3.20;;
59169;SDS011;52474;52.236;5.114;2022-09-28T00:23:33;6.82;;;3.17;;
59169;SDS011;52474;52.236;5.114;2022-09-28T00:26:03;6.80;;;2.95;;
59169;SDS011;52474;52.236;5.114;2022-09-28T00:28:30;6.75;;;3.28;;
59169;SDS011;52474;52.236;5.114;2022-09-28T00:30:59;5.82;;;2.80;;
59169;SDS011;52474;52.236;5.114;2022-09-28T00:33:25;5.50;;;2.40;;
59169;SDS011;52474;52.236;5.114;2022-09-28T00:35:55;7.57;;;3.15;;
59169;SDS011;52474;52.236;5.114;2022-09-28T00:38:24;4.50;;;2.53;;
59169;SDS011;52474;52.236;5.114;2022-09-28T00:40:51;4.93;;;2.10;;
59169;SDS011;52474;52.236;5.114;2022-09-28T00:43:18;4.65;;;2.00;;
59169;SDS011;52474;52.236;5.114;2022-09-28T00:45:44;3.58;;;1.85;;
59169;SDS011;52474;52.236;5.114;2022-09-28T00:48:19;7.15;;;2.08;;
59169;SDS011;52474;52.236;5.114;2022-09-28T00:50:45;4.72;;;1.70;;
59169;SDS011;52474;52.236;5.114;2022-09-28T00:53:16;5.57;;;2.40;;
59169;SDS011;52474;52.236;5.114;2022-09-28T00:55:55;7.20;;;2.53;;
59169;SDS011;52474;52.236;5.114;2022-09-28T00:58:29;5.53;;;2.65;;
59169;SDS011;52474;52.236;5.114;2022-09-28T01:00:58;5.90;;;2.60;;
59169;SDS011;52474;52.236;5.114;2022-09-28T01:03:24;6.82;;;2.45;;
59169;SDS011;52474;52.236;5.114;2022-09-28T01:05:52;4.07;;;2.20;;
59169;SDS011;52474;52.236;5.114;2022-09-28T01:08:19;3.53;;;1.98;;
59169;SDS011;52474;52.236;5.114;2022-09-28T01:10:48;4.10;;;1.90;;
59169;SDS011;52474;52.236;5.114;2022-09-28T01:13:18;6.60;;;1.90;;
59169;SDS011;52474;52.236;5.114;2022-09-28T01:16:04;2.75;;;1.63;;
59169;SDS011;52474;52.236;5.114;2022-09-28T01:21:58;4.80;;;1.90;;
59169;SDS011;52474;52.236;5.114;2022-09-28T01:24:37;2.05;;;1.35;;
59169;SDS011;52474;52.236;5.114;2022-09-28T01:32:11;3.38;;;1.50;;
59169;SDS011;52474;52.236;5.114;2022-09-28T01:34:44;3.05;;;1.30;;
59169;SDS011;52474;52.236;5.114;2022-09-28T01:37:17;4.22;;;1.45;;
59169;SDS011;52474;52.236;5.114;2022-09-28T01:39:46;1.83;;;1.10;;
59169;SDS011;52474;52.236;5.114;2022-09-28T01:42:24;3.33;;;1.38;;
59169;SDS011;52474;52.236;5.114;2022-09-28T01:44:54;5.32;;;1.13;;
59169;SDS011;52474;52.236;5.114;2022-09-28T01:47:24;1.98;;;1.05;;
59169;SDS011;52474;52.236;5.114;2022-09-28T01:50:01;2.97;;;1.20;;
59169;SDS011;52474;52.236;5.114;2022-09-28T01:52:49;4.15;;;1.00;;
59169;SDS011;52474;52.236;5.114;2022-09-28T01:55:28;1.67;;;1.00;;
59169;SDS011;52474;52.236;5.114;2022-09-28T01:58:08;1.42;;;0.90;;
59169;SDS011;52474;52.236;5.114;2022-09-28T02:00:40;2.80;;;0.88;;
59169;SDS011;52474;52.236;5.114;2022-09-28T02:03:11;1.23;;;0.80;;
59169;SDS011;52474;52.236;5.114;2022-09-28T02:05:47;5.05;;;0.90;;
59169;SDS011;52474;52.236;5.114;2022-09-28T02:08:20;0.80;;;0.60;;
59169;SDS011;52474;52.236;5.114;2022-09-28T02:13:38;1.40;;;0.90;;
59169;SDS011;52474;52.236;5.114;2022-09-28T02:18:43;1.25;;;0.80;;
59169;SDS011;52474;52.236;5.114;2022-09-28T02:21:14;1.60;;;0.93;;
59169;SDS011;52474;52.236;5.114;2022-09-28T02:23:45;2.65;;;1.10;;
59169;SDS011;52474;52.236;5.114;2022-09-28T02:26:21;1.50;;;0.70;;
59169;SDS011;52474;52.236;5.114;2022-09-28T02:28:51;1.45;;;0.80;;
59169;SDS011;52474;52.236;5.114;2022-09-28T02:31:17;4.38;;;0.80;;
59169;SDS011;52474;52.236;5.114;2022-09-28T02:33:43;5.93;;;0.73;;
59169;SDS011;52474;52.236;5.114;2022-09-28T02:36:10;1.77;;;0.70;;
59169;SDS011;52474;52.236;5.114;2022-09-28T02:38:37;1.15;;;0.98;;
59169;SDS011;52474;52.236;5.114;2022-09-28T02:41:07;3.97;;;0.80;;
59169;SDS011;52474;52.236;5.114;2022-09-28T02:49:55;1.60;;;0.80;;
59169;SDS011;52474;52.236;5.114;2022-09-28T02:52:41;2.78;;;0.82;;
59169;SDS011;52474;52.236;5.114;2022-09-28T02:58:20;2.15;;;1.27;;
59169;SDS011;52474;52.236;5.114;2022-09-28T03:03:53;1.63;;;0.65;;
59169;SDS011;52474;52.236;5.114;2022-09-28T03:06:30;0.90;;;0.50;;
59169;SDS011;52474;52.236;5.114;2022-09-28T03:09:17;3.35;;;0.60;;
59169;SDS011;52474;52.236;5.114;2022-09-28T03:11:48;1.77;;;0.45;;
59169;SDS011;52474;52.236;5.114;2022-09-28T03:14:17;3.75;;;0.70;;
59169;SDS011;52474;52.236;5.114;2022-09-28T03:16:50;1.33;;;0.47;;
59169;SDS011;52474;52.236;5.114;2022-09-28T03:19:17;0.65;;;0.40;;
59169;SDS011;52474;52.236;5.114;2022-09-28T03:21:49;0.40;;;0.40;;
59169;SDS011;52474;52.236;5.114;2022-09-28T03:24:15;2.20;;;0.45;;
59169;SDS011;52474;52.236;5.114;2022-09-28T03:26:40;1.50;;;0.50;;
59169;SDS011;52474;52.236;5.114;2022-09-28T03:29:07;4.05;;;0.73;;
59169;SDS011;52474;52.236;5.114;2022-09-28T03:31:33;2.80;;;0.60;;
59169;SDS011;52474;52.236;5.114;2022-09-28T03:33:59;1.67;;;0.50;;
59169;SDS011;52474;52.236;5.114;2022-09-28T03:36:25;1.38;;;0.60;;
59169;SDS011;52474;52.236;5.114;2022-09-28T03:38:51;0.40;;;0.40;;
59169;SDS011;52474;52.236;5.114;2022-09-28T03:43:48;1.15;;;0.70;;
59169;SDS011;52474;52.236;5.114;2022-09-28T03:46:14;0.80;;;0.60;;
59169;SDS011;52474;52.236;5.114;2022-09-28T03:48:44;2.33;;;0.65;;
59169;SDS011;52474;52.236;5.114;2022-09-28T03:51:10;0.68;;;0.40;;
59169;SDS011;52474;52.236;5.114;2022-09-28T03:53:37;1.48;;;0.60;;
59169;SDS011;52474;52.236;5.114;2022-09-28T03:56:05;0.63;;;0.60;;
59169;SDS011;52474;52.236;5.114;2022-09-28T03:58:33;1.90;;;0.90;;
59169;SDS011;52474;52.236;5.114;2022-09-28T04:01:03;1.55;;;0.52;;
59169;SDS011;52474;52.236;5.114;2022-09-28T04:03:31;1.38;;;0.70;;
59169;SDS011;52474;52.236;5.114;2022-09-28T04:05:57;1.67;;;0.90;;
59169;SDS011;52474;52.236;5.114;2022-09-28T04:08:23;1.00;;;0.73;;
59169;SDS011;52474;52.236;5.114;2022-09-28T04:10:49;0.75;;;0.70;;
59169;SDS011;52474;52.236;5.114;2022-09-28T04:13:15;4.10;;;1.00;;
59169;SDS011;52474;52.236;5.114;2022-09-28T04:15:42;2.25;;;0.77;;
59169;SDS011;52474;52.236;5.114;2022-09-28T04:18:15;2.28;;;0.70;;
59169;SDS011;52474;52.236;5.114;2022-09-28T04:21:04;1.33;;;0.70;;
59169;SDS011;52474;52.236;5.114;2022-09-28T04:23:56;1.90;;;1.20;;
59169;SDS011;52474;52.236;5.114;2022-09-28T04:26:24;2.08;;;1.10;;
59169;SDS011;52474;52.236;5.114;2022-09-28T04:28:52;2.58;;;0.98;;
59169;SDS011;52474;52.236;5.114;2022-09-28T04:31:36;2.88;;;0.88;;
59169;SDS011;52474;52.236;5.114;2022-09-28T04:34:04;1.35;;;0.95;;
59169;SDS011;52474;52.236;5.114;2022-09-28T04:36:30;3.55;;;1.00;;
59169;SDS011;52474;52.236;5.114;2022-09-28T04:38:56;2.65;;;0.95;;
59169;SDS011;52474;52.236;5.114;2022-09-28T04:41:25;3.00;;;0.95;;
59169;SDS011;52474;52.236;5.114;2022-09-28T04:43:51;27.73;;;2.33;;
59169;SDS011;52474;52.236;5.114;2022-09-28T04:46:17;2.63;;;1.02;;
59169;SDS011;52474;52.236;5.114;2022-09-28T04:48:53;5.72;;;1.23;;
59169;SDS011;52474;52.236;5.114;2022-09-28T04:51:43;1.50;;;1.10;;
59169;SDS011;52474;52.236;5.114;2022-09-28T04:54:09;1.92;;;0.93;;
59169;SDS011;52474;52.236;5.114;2022-09-28T04:56:34;0.88;;;0.70;;
59169;SDS011;52474;52.236;5.114;2022-09-28T04:59:00;23.20;;;1.02;;
59169;SDS011;52474;52.236;5.114;2022-09-28T05:01:26;26.75;;;2.05;;
59169;SDS011;52474;52.236;5.114;2022-09-28T05:03:54;1.27;;;0.90;;
59169;SDS011;52474;52.236;5.114;2022-09-28T05:06:43;24.27;;;2.37;;
59169;SDS011;52474;52.236;5.114;2022-09-28T05:09:11;2.72;;;1.30;;
59169;SDS011;52474;52.236;5.114;2022-09-28T05:11:36;2.72;;;1.10;;
59169;SDS011;52474;52.236;5.114;2022-09-28T05:14:05;1.50;;;1.10;;
59169;SDS011;52474;52.236;5.114;2022-09-28T05:16:31;3.53;;;1.20;;
59169;SDS011;52474;52.236;5.114;2022-09-28T05:19:36;2.33;;;1.30;;
59169;SDS011;52474;52.236;5.114;2022-09-28T05:22:02;19.08;;;2.35;;
59169;SDS011;52474;52.236;5.114;2022-09-28T05:24:33;3.58;;;1.80;;
59169;SDS011;52474;52.236;5.114;2022-09-28T05:26:58;7.38;;;2.00;;
59169;SDS011;52474;52.236;5.114;2022-09-28T05:29:24;11.00;;;2.38;;
59169;SDS011;52474;52.236;5.114;2022-09-28T05:32:08;4.80;;;2.25;;
59169;SDS011;52474;52.236;5.114;2022-09-28T05:34:40;5.38;;;2.03;;
59169;SDS011;52474;52.236;5.114;2022-09-28T05:37:08;3.42;;;1.95;;
59169;SDS011;52474;52.236;5.114;2022-09-28T05:39:33;8.32;;;1.85;;
59169;SDS011;52474;52.236;5.114;2022-09-28T05:41:59;4.97;;;1.20;;
59169;SDS011;52474;52.236;5.114;2022-09-28T05:44:25;3.70;;;1.10;;
59169;SDS011;52474;52.236;5.114;2022-09-28T05:46:52;3.13;;;1.35;;
59169;SDS011;52474;52.236;5.114;2022-09-28T05:49:18;5.78;;;1.55;;
59169;SDS011;52474;52.236;5.114;2022-09-28T05:51:45;2.28;;;1.42;;
59169;SDS011;52474;52.236;5.114;2022-09-28T05:54:11;2.67;;;1.27;;
59169;SDS011;52474;52.236;5.114;2022-09-28T05:56:41;2.13;;;0.98;;
59169;SDS011;52474;52.236;5.114;2022-09-28T05:59:07;2.33;;;1.48;;
59169;SDS011;52474;52.236;5.114;2022-09-28T06:01:35;4.22;;;1.13;;
59169;SDS011;52474;52.236;5.114;2022-09-28T06:04:02;4.45;;;1.40;;
59169;SDS011;52474;52.236;5.114;2022-09-28T06:06:27;2.95;;;1.08;;
59169;SDS011;52474;52.236;5.114;2022-09-28T06:08:55;2.17;;;1.20;;
59169;SDS011;52474;52.236;5.114;2022-09-28T06:11:31;1.17;;;0.90;;
59169;SDS011;52474;52.236;5.114;2022-09-28T06:14:01;3.15;;;1.10;;
59169;SDS011;52474;52.236;5.114;2022-09-28T06:16:29;2.45;;;1.13;;
59169;SDS011;52474;52.236;5.114;2022-09-28T06:18:55;4.20;;;1.02;;
59169;SDS011;52474;52.236;5.114;2022-09-28T06:21:33;2.33;;;1.30;;
59169;SDS011;52474;52.236;5.114;2022-09-28T06:24:00;2.78;;;1.40;;
59169;SDS011;52474;52.236;5.114;2022-09-28T06:26:27;1.88;;;1.33;;
59169;SDS011;52474;52.236;5.114;2022-09-28T06:28:53;2.17;;;0.93;;
59169;SDS011;52474;52.236;5.114;2022-09-28T06:31:19;3.45;;;1.25;;
59169;SDS011;52474;52.236;5.114;2022-09-28T06:33:48;2.15;;;1.17;;
59169;SDS011;52474;52.236;5.114;2022-09-28T06:36:16;1.90;;;1.10;;
59169;SDS011;52474;52.236;5.114;2022-09-28T06:38:42;3.63;;;1.25;;
59169;SDS011;52474;52.236;5.114;2022-09-28T06:41:08;4.05;;;1.38;;
59169;SDS011;52474;52.236;5.114;2022-09-28T06:43:36;1.80;;;1.17;;
59169;SDS011;52474;52.236;5.114;2022-09-28T06:46:22;1.95;;;1.02;;
59169;SDS011;52474;52.236;5.114;2022-09-28T06:48:48;1.73;;;1.10;;
59169;SDS011;52474;52.236;5.114;2022-09-28T06:51:46;3.35;;;1.80;;
59169;SDS011;52474;52.236;5.114;2022-09-28T06:54:42;2.38;;;1.08;;
59169;SDS011;52474;52.236;5.114;2022-09-28T06:57:22;2.25;;;1.20;;
59169;SDS011;52474;52.236;5.114;2022-09-28T06:59:47;1.75;;;1.02;;
59169;SDS011;52474;52.236;5.114;2022-09-28T07:02:13;2.65;;;1.10;;
59169;SDS011;52474;52.236;5.114;2022-09-28T07:05:00;1.73;;;1.08;;
59169;SDS011;52474;52.236;5.114;2022-09-28T07:07:54;1.35;;;0.82;;
59169;SDS011;52474;52.236;5.114;2022-09-28T07:10:42;3.70;;;1.27;;
59169;SDS011;52474;52.236;5.114;2022-09-28T07:13:26;3.35;;;0.98;;
59169;SDS011;52474;52.236;5.114;2022-09-28T07:16:01;3.08;;;1.08;;
59169;SDS011;52474;52.236;5.114;2022-09-28T07:18:27;3.00;;;1.38;;
59169;SDS011;52474;52.236;5.114;2022-09-28T07:20:54;3.50;;;1.60;;
59169;SDS011;52474;52.236;5.114;2022-09-28T07:23:24;6.68;;;1.40;;
59169;SDS011;52474;52.236;5.114;2022-09-28T07:26:23;3.55;;;1.63;;
59169;SDS011;52474;52.236;5.114;2022-09-28T07:29:12;4.75;;;1.50;;
59169;SDS011;52474;52.236;5.114;2022-09-28T07:32:09;4.10;;;1.58;;
59169;SDS011;52474;52.236;5.114;2022-09-28T07:34:54;3.25;;;1.60;;
59169;SDS011;52474;52.236;5.114;2022-09-28T07:37:33;3.88;;;1.52;;
59169;SDS011;52474;52.236;5.114;2022-09-28T07:40:01;2.70;;;1.27;;
59169;SDS011;52474;52.236;5.114;2022-09-28T07:42:47;5.90;;;1.50;;
59169;SDS011;52474;52.236;5.114;2022-09-28T07:45:13;2.97;;;1.13;;
59169;SDS011;52474;52.236;5.114;2022-09-28T07:47:39;2.63;;;1.35;;
59169;SDS011;52474;52.236;5.114;2022-09-28T07:50:23;1.48;;;1.02;;
59169;SDS011;52474;52.236;5.114;2022-09-28T07:52:58;3.53;;;1.20;;
59169;SDS011;52474;52.236;5.114;2022-09-28T07:55:32;4.07;;;1.40;;
59169;SDS011;52474;52.236;5.114;2022-09-28T07:58:04;2.30;;;1.02;;
59169;SDS011;52474;52.236;5.114;2022-09-28T08:01:01;3.05;;;1.48;;
59169;SDS011;52474;52.236;5.114;2022-09-28T08:03:30;2.15;;;1.00;;
59169;SDS011;52474;52.236;5.114;2022-09-28T08:05:59;2.92;;;1.17;;
59169;SDS011;52474;52.236;5.114;2022-09-28T08:08:27;4.00;;;1.05;;
59169;SDS011;52474;52.236;5.114;2022-09-28T08:10:55;1.90;;;1.25;;
59169;SDS011;52474;52.236;5.114;2022-09-28T08:13:58;2.05;;;1.00;;
59169;SDS011;52474;52.236;5.114;2022-09-28T08:16:53;1.35;;;1.08;;
59169;SDS011;52474;52.236;5.114;2022-09-28T08:19:40;2.63;;;1.08;;
59169;SDS011;52474;52.236;5.114;2022-09-28T08:22:25;2.75;;;1.40;;
59169;SDS011;52474;52.236;5.114;2022-09-28T08:24:53;2.28;;;1.20;;
59169;SDS011;52474;52.236;5.114;2022-09-28T08:27:19;3.45;;;1.20;;
59169;SDS011;52474;52.236;5.114;2022-09-28T08:29:45;2.67;;;1.30;;
59169;SDS011;52474;52.236;5.114;2022-09-28T08:32:29;1.60;;;1.13;;
59169;SDS011;52474;52.236;5.114;2022-09-28T08:35:14;3.85;;;1.40;;
59169;SDS011;52474;52.236;5.114;2022-09-28T08:37:49;6.30;;;1.60;;
59169;SDS011;52474;52.236;5.114;2022-09-28T08:44:17;677.23;;;41.60;;
59169;SDS011;52474;52.236;5.114;2022-09-28T08:47:20;1600.18;;;117.07;;
59169;SDS011;52474;52.236;5.114;2022-09-28T08:50:44;1999.90;;;293.48;;
59169;SDS011;52474;52.236;5.114;2022-09-28T08:53:39;1984.32;;;274.38;;
59169;SDS011;52474;52.236;5.114;2022-09-28T08:59:21;1891.55;;;161.68;;
59169;SDS011;52474;52.236;5.114;2022-09-28T09:01:59;1999.90;;;278.08;;
59169;SDS011;52474;52.236;5.114;2022-09-28T09:04:28;1677.35;;;120.28;;
59169;SDS011;52474;52.236;5.114;2022-09-28T09:16:19;970.30;;;59.38;;
59169;SDS011;52474;52.236;5.114;2022-09-28T09:18:53;1999.90;;;255.77;;
59169;SDS011;52474;52.236;5.114;2022-09-28T09:21:57;1462.75;;;106.93;;
59169;SDS011;52474;52.236;5.114;2022-09-28T09:24:39;975.88;;;73.20;;
59169;SDS011;52474;52.236;5.114;2022-09-28T09:27:24;924.80;;;54.33;;
59169;SDS011;52474;52.236;5.114;2022-09-28T09:32:38;574.40;;;35.72;;
59169;SDS011;52474;52.236;5.114;2022-09-28T09:35:27;375.58;;;24.35;;
59169;SDS011;52474;52.236;5.114;2022-09-28T09:42:02;2.08;;;0.60;;
59169;SDS011;52474;52.236;5.114;2022-09-28T09:45:02;1.70;;;0.70;;
59169;SDS011;52474;52.236;5.114;2022-09-28T09:48:02;153.05;;;9.00;;
59169;SDS011;52474;52.236;5.114;2022-09-28T09:50:44;3.20;;;1.08;;
59169;SDS011;52474;52.236;5.114;2022-09-28T09:55:54;2.10;;;0.80;;
59169;SDS011;52474;52.236;5.114;2022-09-28T09:58:38;1.30;;;0.70;;
59169;SDS011;52474;52.236;5.114;2022-09-28T10:01:37;1.05;;;0.70;;
59169;SDS011;52474;52.236;5.114;2022-09-28T10:04:34;1.52;;;0.70;;
59169;SDS011;52474;52.236;5.114;2022-09-28T10:07:23;2.83;;;0.70;;
59169;SDS011;52474;52.236;5.114;2022-09-28T10:09:54;2.55;;;0.60;;
59169;SDS011;52474;52.236;5.114;2022-09-28T10:12:45;3.28;;;0.52;;
59169;SDS011;52474;52.236;5.114;2022-09-28T10:15:14;0.73;;;0.40;;
59169;SDS011;52474;52.236;5.114;2022-09-28T10:17:54;1.08;;;0.50;;
59169;SDS011;52474;52.236;5.114;2022-09-28T10:20:42;0.70;;;0.40;;
59169;SDS011;52474;52.236;5.114;2022-09-28T10:23:31;0.93;;;0.30;;
59169;SDS011;52474;52.236;5.114;2022-09-28T10:26:01;0.35;;;0.22;;
59169;SDS011;52474;52.236;5.114;2022-09-28T10:28:41;1.40;;;0.22;;
59169;SDS011;52474;52.236;5.114;2022-09-28T10:34:02;0.40;;;0.35;;
59169;SDS011;52474;52.236;5.114;2022-09-28T10:36:30;1.45;;;0.57;;
59169;SDS011;52474;52.236;5.114;2022-09-28T10:39:05;4.20;;;2.47;;
59169;SDS011;52474;52.236;5.114;2022-09-28T10:41:31;0.88;;;0.50;;
59169;SDS011;52474;52.236;5.114;2022-09-28T10:44:01;0.75;;;0.45;;
59169;SDS011;52474;52.236;5.114;2022-09-28T10:46:58;0.30;;;0.30;;
59169;SDS011;52474;52.236;5.114;2022-09-28T10:49:27;1.17;;;0.40;;
59169;SDS011;52474;52.236;5.114;2022-09-28T10:52:03;1.63;;;0.30;;
59169;SDS011;52474;52.236;5.114;2022-09-28T10:54:36;2.83;;;0.38;;
59169;SDS011;52474;52.236;5.114;2022-09-28T10:57:08;1.00;;;0.43;;
59169;SDS011;52474;52.236;5.114;2022-09-28T10:59:57;1.45;;;0.82;;
59169;SDS011;52474;52.236;5.114;2022-09-28T11:02:33;0.65;;;0.40;;
59169;SDS011;52474;52.236;5.114;2022-09-28T11:05:17;0.80;;;0.45;;
59169;SDS011;52474;52.236;5.114;2022-09-28T11:07:46;2.47;;;0.50;;
59169;SDS011;52474;52.236;5.114;2022-09-28T11:10:19;1.00;;;0.30;;
59169;SDS011;52474;52.236;5.114;2022-09-28T11:12:50;0.68;;;0.30;;
59169;SDS011;52474;52.236;5.114;2022-09-28T11:15:19;0.30;;;0.30;;
59169;SDS011;52474;52.236;5.114;2022-09-28T11:17:49;1.25;;;0.40;;
59169;SDS011;52474;52.236;5.114;2022-09-28T11:22:50;1.85;;;0.52;;
59169;SDS011;52474;52.236;5.114;2022-09-28T11:25:24;0.82;;;0.30;;
59169;SDS011;52474;52.236;5.114;2022-09-28T11:33:15;0.35;;;0.30;;
59169;SDS011;52474;52.236;5.114;2022-09-28T11:41:37;1.65;;;1.02;;
59169;SDS011;52474;52.236;5.114;2022-09-28T11:52:54;2.83;;;0.70;;
59169;SDS011;52474;52.236;5.114;2022-09-28T12:01:47;0.68;;;0.68;;
59169;SDS011;52474;52.236;5.114;2022-09-28T12:04:39;1.52;;;0.60;;
59169;SDS011;52474;52.236;5.114;2022-09-28T12:09:57;1.58;;;0.50;;
59169;SDS011;52474;52.236;5.114;2022-09-28T12:15:51;1.30;;;0.50;;
59169;SDS011;52474;52.236;5.114;2022-09-28T12:18:28;0.82;;;0.50;;
59169;SDS011;52474;52.236;5.114;2022-09-28T12:24:14;0.40;;;0.40;;
59169;SDS011;52474;52.236;5.114;2022-09-28T12:26:47;0.57;;;0.43;;
59169;SDS011;52474;52.236;5.114;2022-09-28T12:29:31;0.70;;;0.70;;
59169;SDS011;52474;52.236;5.114;2022-09-28T12:34:41;0.50;;;0.50;;
59169;SDS011;52474;52.236;5.114;2022-09-28T12:42:56;0.65;;;0.63;;
59169;SDS011;52474;52.236;5.114;2022-09-28T12:48:30;0.50;;;0.50;;
59169;SDS011;52474;52.236;5.114;2022-09-28T12:56:41;1.38;;;0.60;;
59169;SDS011;52474;52.236;5.114;2022-09-28T12:59:20;0.60;;;0.40;;
59169;SDS011;52474;52.236;5.114;2022-09-28T13:02:00;0.43;;;0.43;;
59169;SDS011;52474;52.236;5.114;2022-09-28T13:07:30;0.38;;;0.38;;
59169;SDS011;52474;52.236;5.114;2022-09-28T13:13:03;0.22;;;0.22;;
59169;SDS011;52474;52.236;5.114;2022-09-28T13:15:40;0.30;;;0.30;;
59169;SDS011;52474;52.236;5.114;2022-09-28T13:21:17;0.88;;;0.40;;
59169;SDS011;52474;52.236;5.114;2022-09-28T13:24:00;1.03;;;0.43;;
59169;SDS011;52474;52.236;5.114;2022-09-28T13:26:30;0.30;;;0.30;;
59169;SDS011;52474;52.236;5.114;2022-09-28T13:29:08;0.60;;;0.50;;
59169;SDS011;52474;52.236;5.114;2022-09-28T13:31:39;0.40;;;0.40;;
59169;SDS011;52474;52.236;5.114;2022-09-28T13:34:21;1.35;;;0.40;;
59169;SDS011;52474;52.236;5.114;2022-09-28T13:37:36;0.30;;;0.30;;
59169;SDS011;52474;52.236;5.114;2022-09-28T13:42:22;1.15;;;0.55;;
59169;SDS011;52474;52.236;5.114;2022-09-28T13:53:54;1.10;;;0.52;;
59169;SDS011;52474;52.236;5.114;2022-09-28T13:56:36;2.38;;;0.60;;
59169;SDS011;52474;52.236;5.114;2022-09-28T13:59:22;0.73;;;0.50;;
59169;SDS011;52474;52.236;5.114;2022-09-28T14:01:58;1.58;;;0.55;;
59169;SDS011;52474;52.236;5.114;2022-09-28T14:07:20;1.27;;;0.65;;
59169;SDS011;52474;52.236;5.114;2022-09-28T14:12:48;0.98;;;0.68;;
59169;SDS011;52474;52.236;5.114;2022-09-28T14:20:26;0.80;;;0.60;;
59169;SDS011;52474;52.236;5.114;2022-09-28T14:26:17;1.17;;;0.57;;
59169;SDS011;52474;52.236;5.114;2022-09-28T14:31:25;2.78;;;0.60;;
59169;SDS011;52474;52.236;5.114;2022-09-28T14:33:57;2.25;;;0.77;;
59169;SDS011;52474;52.236;5.114;2022-09-28T14:36:36;2.05;;;0.75;;
59169;SDS011;52474;52.236;5.114;2022-09-28T14:39:26;0.93;;;0.70;;
59169;SDS011;52474;52.236;5.114;2022-09-28T14:42:14;0.77;;;0.50;;
59169;SDS011;52474;52.236;5.114;2022-09-28T14:47:34;1.95;;;0.60;;
59169;SDS011;52474;52.236;5.114;2022-09-28T14:50:02;0.90;;;0.60;;
59169;SDS011;52474;52.236;5.114;2022-09-28T14:52:54;1.25;;;0.77;;
59169;SDS011;52474;52.236;5.114;2022-09-28T14:55:37;1.42;;;0.70;;
59169;SDS011;52474;52.236;5.114;2022-09-28T14:58:14;1.85;;;1.63;;
59169;SDS011;52474;52.236;5.114;2022-09-28T15:00:43;0.68;;;0.50;;
59169;SDS011;52474;52.236;5.114;2022-09-28T15:03:11;0.90;;;0.90;;
59169;SDS011;52474;52.236;5.114;2022-09-28T15:05:42;2.72;;;1.33;;
59169;SDS011;52474;52.236;5.114;2022-09-28T15:08:11;2.95;;;2.30;;
59169;SDS011;52474;52.236;5.114;2022-09-28T15:10:38;3.33;;;1.45;;
59169;SDS011;52474;52.236;5.114;2022-09-28T15:13:20;1.50;;;1.13;;
59169;SDS011;52474;52.236;5.114;2022-09-28T15:15:50;1.77;;;1.05;;
59169;SDS011;52474;52.236;5.114;2022-09-28T15:21:15;4.40;;;0.60;;
59169;SDS011;52474;52.236;5.114;2022-09-28T15:23:42;0.90;;;0.50;;
59169;SDS011;52474;52.236;5.114;2022-09-28T15:26:25;1.70;;;0.50;;
59169;SDS011;52474;52.236;5.114;2022-09-28T15:28:56;0.70;;;0.52;;
59169;SDS011;52474;52.236;5.114;2022-09-28T15:31:23;0.60;;;0.30;;
59169;SDS011;52474;52.236;5.114;2022-09-28T15:33:51;1.00;;;0.40;;
59169;SDS011;52474;52.236;5.114;2022-09-28T15:36:39;0.32;;;0.30;;
59169;SDS011;52474;52.236;5.114;2022-09-28T15:39:13;0.50;;;0.50;;
59169;SDS011;52474;52.236;5.114;2022-09-28T15:41:43;0.77;;;0.50;;
59169;SDS011;52474;52.236;5.114;2022-09-28T15:49:41;0.75;;;0.50;;
59169;SDS011;52474;52.236;5.114;2022-09-28T15:55:18;1.95;;;0.50;;
59169;SDS011;52474;52.236;5.114;2022-09-28T15:57:48;0.40;;;0.38;;
59169;SDS011;52474;52.236;5.114;2022-09-28T16:00:22;0.52;;;0.40;;
59169;SDS011;52474;52.236;5.114;2022-09-28T16:03:03;2.25;;;0.80;;
59169;SDS011;52474;52.236;5.114;2022-09-28T16:08:37;1.75;;;1.02;;
59169;SDS011;52474;52.236;5.114;2022-09-28T16:11:12;2.05;;;0.50;;
59169;SDS011;52474;52.236;5.114;2022-09-28T16:16:28;1.88;;;0.70;;
59169;SDS011;52474;52.236;5.114;2022-09-28T16:18:58;1.20;;;1.10;;
59169;SDS011;52474;52.236;5.114;2022-09-28T16:24:32;3.20;;;1.45;;
59169;SDS011;52474;52.236;5.114;2022-09-28T16:26:58;5.32;;;2.00;;
59169;SDS011;52474;52.236;5.114;2022-09-28T16:32:49;1.08;;;0.77;;
59169;SDS011;52474;52.236;5.114;2022-09-28T16:35:25;1.45;;;0.70;;
59169;SDS011;52474;52.236;5.114;2022-09-28T16:37:55;0.95;;;0.73;;
59169;SDS011;52474;52.236;5.114;2022-09-28T16:40:21;1.83;;;0.73;;
59169;SDS011;52474;52.236;5.114;2022-09-28T16:42:47;2.58;;;0.60;;
59169;SDS011;52474;52.236;5.114;2022-09-28T16:45:16;1.45;;;0.93;;
59169;SDS011;52474;52.236;5.114;2022-09-28T16:47:45;1.92;;;1.20;;
59169;SDS011;52474;52.236;5.114;2022-09-28T16:50:14;2.40;;;1.50;;
59169;SDS011;52474;52.236;5.114;2022-09-28T16:52:41;1.90;;;1.33;;
59169;SDS011;52474;52.236;5.114;2022-09-28T16:55:26;2.40;;;1.45;;
59169;SDS011;52474;52.236;5.114;2022-09-28T16:57:52;5.18;;;1.50;;
59169;SDS011;52474;52.236;5.114;2022-09-28T17:00:22;8.65;;;4.15;;
59169;SDS011;52474;52.236;5.114;2022-09-28T17:02:49;7.72;;;3.80;;
59169;SDS011;52474;52.236;5.114;2022-09-28T17:05:15;8.40;;;5.03;;
59169;SDS011;52474;52.236;5.114;2022-09-28T17:07:43;15.73;;;9.43;;
59169;SDS011;52474;52.236;5.114;2022-09-28T17:10:17;21.17;;;13.20;;
59169;SDS011;52474;52.236;5.114;2022-09-28T17:12:58;23.60;;;16.08;;
59169;SDS011;52474;52.236;5.114;2022-09-28T17:15:24;15.75;;;12.05;;
59169;SDS011;52474;52.236;5.114;2022-09-28T17:17:50;19.58;;;14.18;;
59169;SDS011;52474;52.236;5.114;2022-09-28T17:20:17;17.80;;;12.57;;
59169;SDS011;52474;52.236;5.114;2022-09-28T17:22:49;17.20;;;11.70;;
59169;SDS011;52474;52.236;5.114;2022-09-28T17:25:15;15.07;;;9.65;;
59169;SDS011;52474;52.236;5.114;2022-09-28T17:27:43;9.77;;;6.90;;
59169;SDS011;52474;52.236;5.114;2022-09-28T17:30:11;9.27;;;6.83;;
59169;SDS011;52474;52.236;5.114;2022-09-28T17:32:38;11.82;;;6.95;;
59169;SDS011;52474;52.236;5.114;2022-09-28T17:35:12;9.60;;;7.22;;
59169;SDS011;52474;52.236;5.114;2022-09-28T17:37:40;11.73;;;7.93;;
59169;SDS011;52474;52.236;5.114;2022-09-28T17:40:16;6.40;;;4.70;;
59169;SDS011;52474;52.236;5.114;2022-09-28T17:42:45;4.25;;;3.30;;
59169;SDS011;52474;52.236;5.114;2022-09-28T17:45:12;7.07;;;4.85;;
59169;SDS011;52474;52.236;5.114;2022-09-28T17:47:40;6.60;;;4.60;;
59169;SDS011;52474;52.236;5.114;2022-09-28T17:50:26;3.90;;;2.70;;
59169;SDS011;52474;52.236;5.114;2022-09-28T17:52:54;2.78;;;2.42;;
59169;SDS011;52474;52.236;5.114;2022-09-28T17:55:23;2.55;;;1.50;;
59169;SDS011;52474;52.236;5.114;2022-09-28T17:57:54;2.97;;;1.38;;
59169;SDS011;52474;52.236;5.114;2022-09-28T18:00:20;2.50;;;1.13;;
59169;SDS011;52474;52.236;5.114;2022-09-28T18:02:52;2.80;;;0.95;;
59169;SDS011;52474;52.236;5.114;2022-09-28T18:05:22;1.25;;;0.82;;
59169;SDS011;52474;52.236;5.114;2022-09-28T18:07:49;1.20;;;0.82;;
59169;SDS011;52474;52.236;5.114;2022-09-28T18:10:22;1.42;;;0.63;;
59169;SDS011;52474;52.236;5.114;2022-09-28T18:12:49;1.00;;;0.68;;
59169;SDS011;52474;52.236;5.114;2022-09-28T18:15:15;1.35;;;0.93;;
59169;SDS011;52474;52.236;5.114;2022-09-28T18:17:42;1.25;;;0.80;;
59169;SDS011;52474;52.236;5.114;2022-09-28T18:20:09;1.25;;;0.80;;
59169;SDS011;52474;52.236;5.114;2022-09-28T18:22:36;1.50;;;0.70;;